createdAt,value
2017-07-29T00:01:35.550Z,86.79
2017-07-29T00:04:02.954Z,86.77
2017-07-29T00:06:30.374Z,87.00
2017-07-29T00:08:57.787Z,86.79
2017-07-29T00:11:25.234Z,86.64
2017-07-29T00:13:52.814Z,86.54
2017-07-29T00:16:20.246Z,86.52
2017-07-29T00:18:47.679Z,86.31
2017-07-29T00:21:15.114Z,84.91
2017-07-29T00:23:42.564Z,85.40
2017-07-29T00:26:09.985Z,85.96
2017-07-29T00:28:37.422Z,85.95
2017-07-29T00:31:04.874Z,85.82
2017-07-29T00:33:32.263Z,83.54
2017-07-29T00:35:59.778Z,84.52
2017-07-29T00:38:27.190Z,85.04
2017-07-29T00:40:54.615Z,85.06
2017-07-29T00:43:22.217Z,84.33
2017-07-29T00:45:49.642Z,83.59
2017-07-29T00:48:17.099Z,84.41
2017-07-29T00:50:44.586Z,84.24
2017-07-29T00:53:11.990Z,83.58
2017-07-29T00:55:39.650Z,84.61
2017-07-29T00:58:07.060Z,82.72
2017-07-29T01:00:34.486Z,82.39
2017-07-29T01:03:01.904Z,82.39
2017-07-29T01:05:29.315Z,83.01
2017-07-29T01:07:56.718Z,83.62
2017-07-29T01:10:24.128Z,83.63
2017-07-29T01:12:51.718Z,82.29
2017-07-29T01:15:19.160Z,82.51
2017-07-29T01:17:46.562Z,83.24
2017-07-29T01:20:14.311Z,82.96
2017-07-29T01:22:41.744Z,82.86
2017-07-29T01:25:09.138Z,82.97
2017-07-29T01:27:36.711Z,83.19
2017-07-29T01:30:04.155Z,83.20
2017-07-29T01:32:31.570Z,82.96
2017-07-29T01:34:59.027Z,83.49
2017-07-29T01:37:26.454Z,83.82
2017-07-29T01:39:53.879Z,83.29
2017-07-29T01:42:21.482Z,83.00
2017-07-29T01:44:48.911Z,83.27
2017-07-29T01:47:16.358Z,83.37
2017-07-29T01:49:43.829Z,82.83
2017-07-29T01:52:11.262Z,82.05
2017-07-29T01:54:38.678Z,82.29
2017-07-29T01:57:06.265Z,81.00
2017-07-29T01:59:33.675Z,81.59
2017-07-29T02:02:01.074Z,81.44
2017-07-29T02:04:28.516Z,81.78
2017-07-29T02:06:55.926Z,81.63
2017-07-29T02:09:23.418Z,80.46
2017-07-29T02:11:50.952Z,80.61
2017-07-29T02:14:18.342Z,81.42
2017-07-29T02:16:45.769Z,80.69
2017-07-29T02:19:13.206Z,81.39
2017-07-29T02:21:40.634Z,80.01
2017-07-29T02:24:08.065Z,79.96
2017-07-29T02:26:36.408Z,80.82
2017-07-29T02:29:03.853Z,80.64
2017-07-29T02:31:31.259Z,79.04
2017-07-29T02:33:58.675Z,80.09
2017-07-29T02:36:26.108Z,80.18
2017-07-29T02:38:53.502Z,79.99
2017-07-29T02:41:21.055Z,80.49
2017-07-29T02:43:48.492Z,79.89
2017-07-29T02:46:15.898Z,80.06
2017-07-29T02:48:43.324Z,79.31
2017-07-29T02:51:10.735Z,79.03
2017-07-29T02:53:38.143Z,79.47
2017-07-29T02:56:05.683Z,79.34
2017-07-29T02:58:33.134Z,78.21
2017-07-29T03:01:00.558Z,78.31
2017-07-29T03:03:28.224Z,78.54
2017-07-29T03:05:55.603Z,78.86
2017-07-29T03:08:23.018Z,78.46
2017-07-29T03:10:50.427Z,78.06
2017-07-29T03:13:17.871Z,77.27
2017-07-29T03:15:45.280Z,76.25
2017-07-29T03:18:12.748Z,77.40
2017-07-29T03:20:40.199Z,77.89
2017-07-29T03:23:07.590Z,77.31
2017-07-29T03:25:35.015Z,76.29
2017-07-29T03:28:02.455Z,76.93
2017-07-29T03:30:29.876Z,76.78
2017-07-29T03:32:57.771Z,77.56
2017-07-29T03:35:25.225Z,78.21
2017-07-29T03:37:52.664Z,78.08
2017-07-29T03:40:20.263Z,78.18
2017-07-29T03:42:47.675Z,76.70
2017-07-29T03:45:15.361Z,78.10
2017-07-29T03:47:42.913Z,77.13
2017-07-29T03:50:10.359Z,77.33
2017-07-29T03:52:37.761Z,76.63
2017-07-29T03:55:06.034Z,74.52
2017-07-29T03:57:33.475Z,76.19
2017-07-29T04:00:01.253Z,76.78
2017-07-29T04:02:28.686Z,76.19
2017-07-29T04:04:56.155Z,76.93
2017-07-29T04:07:23.571Z,77.56
2017-07-29T04:09:51.146Z,76.85
2017-07-29T04:12:18.521Z,76.32
2017-07-29T04:14:45.958Z,76.08
2017-07-29T04:17:13.402Z,77.32
2017-07-29T04:19:40.807Z,76.25
2017-07-29T04:22:08.275Z,77.09
2017-07-29T04:24:35.894Z,76.61
2017-07-29T04:27:03.297Z,76.50
2017-07-29T04:29:30.764Z,76.85
2017-07-29T04:31:58.377Z,77.45
2017-07-29T04:34:25.780Z,76.05
2017-07-29T04:36:53.403Z,75.66
2017-07-29T04:39:20.790Z,75.90
2017-07-29T04:41:48.816Z,76.07
2017-07-29T04:44:16.415Z,76.20
2017-07-29T04:46:44.034Z,76.59
2017-07-29T04:49:11.434Z,76.30
2017-07-29T04:51:38.825Z,75.81
2017-07-29T04:54:06.286Z,74.42
2017-07-29T04:56:33.693Z,74.53
2017-07-29T04:59:01.079Z,73.77
2017-07-29T05:01:28.530Z,73.46
2017-07-29T05:03:55.936Z,73.48
2017-07-29T05:06:23.342Z,74.57
2017-07-29T05:08:50.796Z,74.67
2017-07-29T05:11:18.768Z,75.61
2017-07-29T05:13:46.199Z,74.32
2017-07-29T05:16:13.799Z,75.15
2017-07-29T05:18:41.207Z,73.62
2017-07-29T05:21:08.646Z,73.11
2017-07-29T05:23:36.083Z,73.08
2017-07-29T05:26:03.867Z,72.07
2017-07-29T05:28:31.267Z,73.50
2017-07-29T05:30:58.902Z,74.94
2017-07-29T05:33:26.339Z,72.62
2017-07-29T05:35:53.738Z,73.25
2017-07-29T05:38:21.326Z,74.21
2017-07-29T05:40:48.780Z,73.37
2017-07-29T05:43:16.171Z,72.48
2017-07-29T05:45:43.626Z,72.98
2017-07-29T05:48:11.072Z,72.83
2017-07-29T05:50:38.475Z,73.23
2017-07-29T05:53:05.996Z,72.43
2017-07-29T05:55:33.451Z,72.65
2017-07-29T05:58:00.882Z,72.51
2017-07-29T06:00:28.397Z,71.47
2017-07-29T06:02:55.790Z,71.92
2017-07-29T06:05:23.558Z,72.02
2017-07-29T06:07:50.979Z,72.34
2017-07-29T06:10:32.110Z,72.17
2017-07-29T06:12:59.639Z,71.90
2017-07-29T06:15:27.074Z,71.99
2017-07-29T06:17:55.414Z,72.32
2017-07-29T06:20:24.077Z,71.10
2017-07-29T06:22:51.463Z,72.09
2017-07-29T06:25:18.890Z,71.68
2017-07-29T06:27:46.290Z,70.91
2017-07-29T06:30:13.738Z,70.99
2017-07-29T06:32:41.222Z,70.18
2017-07-29T06:35:08.662Z,69.42
2017-07-29T06:37:36.095Z,70.79
2017-07-29T06:40:03.506Z,70.45
2017-07-29T06:42:30.986Z,70.14
2017-07-29T06:44:58.403Z,69.52
2017-07-29T06:47:25.794Z,69.29
2017-07-29T06:49:53.338Z,67.76
2017-07-29T06:52:20.743Z,69.22
2017-07-29T06:54:48.122Z,68.70
2017-07-29T06:57:15.909Z,67.63
2017-07-29T06:59:43.306Z,69.30
2017-07-29T07:02:10.698Z,68.08
2017-07-29T07:04:38.474Z,67.04
2017-07-29T07:07:05.850Z,67.78
2017-07-29T07:09:33.238Z,66.27
2017-07-29T07:12:00.782Z,67.57
2017-07-29T07:14:28.170Z,67.35
2017-07-29T07:16:55.619Z,65.42
2017-07-29T07:19:29.874Z,67.27
2017-07-29T07:21:57.259Z,66.15
2017-07-29T07:24:24.642Z,67.18
2017-07-29T07:26:52.343Z,66.91
2017-07-29T07:29:19.734Z,66.66
2017-07-29T07:31:47.115Z,65.73
2017-07-29T07:34:14.663Z,65.15
2017-07-29T07:36:42.054Z,63.87
2017-07-29T07:39:09.450Z,65.86
2017-07-29T07:41:36.993Z,63.31
2017-07-29T07:44:04.379Z,62.88
2017-07-29T07:46:31.770Z,62.33
2017-07-29T07:48:59.314Z,61.22
2017-07-29T07:51:26.707Z,62.00
2017-07-29T07:53:54.117Z,60.10
2017-07-29T07:56:21.548Z,61.56
2017-07-29T07:58:48.946Z,59.71
2017-07-29T08:01:16.337Z,60.08
2017-07-29T08:03:44.211Z,59.87
2017-07-29T08:06:11.611Z,60.18
2017-07-29T08:08:38.992Z,60.27
2017-07-29T08:11:06.438Z,62.31
2017-07-29T08:13:33.820Z,62.06
2017-07-29T08:16:01.211Z,61.98
2017-07-29T08:18:28.651Z,61.26
2017-07-29T08:20:56.042Z,61.73
2017-07-29T08:23:23.435Z,61.86
2017-07-29T08:25:50.862Z,62.37
2017-07-29T08:28:18.250Z,60.52
2017-07-29T08:30:45.646Z,61.74
2017-07-29T08:33:13.054Z,61.08
2017-07-29T08:35:47.459Z,61.87
2017-07-29T08:38:14.967Z,61.38
2017-07-29T08:40:42.350Z,61.38
2017-07-29T08:43:09.738Z,60.83
2017-07-29T08:45:37.170Z,61.42
2017-07-29T08:48:04.565Z,60.31
2017-07-29T08:50:31.963Z,60.65
2017-07-29T08:52:59.397Z,62.73
2017-07-29T08:55:26.787Z,58.70
2017-07-29T08:57:54.188Z,60.84
2017-07-29T09:00:21.616Z,61.41
2017-07-29T09:02:55.439Z,59.13
2017-07-29T09:05:22.888Z,59.15
2017-07-29T09:07:50.282Z,58.96
2017-07-29T09:10:17.723Z,58.74
2017-07-29T09:12:45.134Z,58.45
2017-07-29T09:15:12.532Z,59.91
2017-07-29T09:17:39.937Z,59.06
2017-07-29T09:20:07.392Z,57.35
2017-07-29T09:22:34.803Z,58.10
2017-07-29T09:25:02.192Z,57.76
2017-07-29T09:27:29.859Z,58.70
2017-07-29T09:29:57.260Z,58.40
2017-07-29T09:32:24.647Z,59.58
2017-07-29T09:34:52.065Z,58.57
2017-07-29T09:37:19.467Z,59.23
2017-07-29T09:39:47.934Z,57.09
2017-07-29T09:42:15.346Z,57.89
2017-07-29T09:44:42.739Z,57.96
2017-07-29T09:47:10.125Z,57.99
2017-07-29T09:49:37.658Z,57.74
2017-07-29T09:52:05.041Z,57.76
2017-07-29T09:54:32.437Z,58.56
2017-07-29T09:56:59.976Z,58.61
2017-07-29T09:59:27.358Z,57.65
2017-07-29T10:01:54.752Z,57.39
2017-07-29T10:04:22.178Z,59.44
2017-07-29T10:06:49.562Z,57.71
2017-07-29T10:09:16.945Z,57.46
2017-07-29T10:11:44.382Z,59.10
2017-07-29T10:14:11.766Z,56.26
2017-07-29T10:16:39.159Z,58.35
2017-07-29T10:19:06.750Z,58.42
2017-07-29T10:21:34.142Z,57.29
2017-07-29T10:24:01.521Z,55.45
2017-07-29T10:26:29.226Z,54.17
2017-07-29T10:28:56.614Z,56.43
2017-07-29T10:31:24.006Z,55.20
2017-07-29T10:33:51.446Z,53.54
2017-07-29T10:36:18.837Z,54.46
2017-07-29T10:38:46.218Z,55.09
2017-07-29T10:41:14.077Z,55.36
2017-07-29T10:43:41.462Z,54.42
2017-07-29T10:46:08.868Z,55.74
2017-07-29T10:48:36.659Z,54.98
2017-07-29T10:51:04.038Z,56.24
2017-07-29T10:53:31.426Z,54.24
2017-07-29T10:55:59.186Z,55.40
2017-07-29T10:58:26.579Z,52.47
2017-07-29T11:00:53.968Z,53.75
2017-07-29T11:03:21.467Z,52.15
2017-07-29T11:05:48.851Z,52.37
2017-07-29T11:08:16.234Z,51.39
2017-07-29T11:10:43.780Z,53.90
2017-07-29T11:13:11.166Z,54.08
2017-07-29T11:15:38.557Z,55.24
2017-07-29T11:18:05.957Z,52.54
2017-07-29T11:20:33.351Z,52.33
2017-07-29T11:23:00.735Z,52.20
2017-07-29T11:25:28.283Z,51.92
2017-07-29T11:27:55.673Z,51.64
2017-07-29T11:30:23.057Z,50.53
2017-07-29T11:32:50.602Z,52.63
2017-07-29T11:35:19.031Z,51.17
2017-07-29T11:37:46.414Z,51.62
2017-07-29T11:40:14.286Z,52.69
2017-07-29T11:42:41.698Z,52.81
2017-07-29T11:45:09.089Z,53.49
2017-07-29T11:47:36.823Z,52.67
2017-07-29T11:50:04.215Z,52.67
2017-07-29T11:52:31.603Z,54.43
2017-07-29T11:54:59.034Z,53.18
2017-07-29T11:57:26.441Z,53.09
2017-07-29T11:59:53.830Z,54.15
2017-07-29T12:02:21.252Z,53.45
2017-07-29T12:04:48.641Z,53.30
2017-07-29T12:07:16.882Z,53.61
2017-07-29T12:09:44.443Z,53.53
2017-07-29T12:12:11.835Z,51.64
2017-07-29T12:14:39.220Z,52.16
2017-07-29T12:17:06.970Z,50.63
2017-07-29T12:19:34.366Z,51.19
2017-07-29T12:22:01.768Z,50.48
2017-07-29T12:24:29.162Z,49.83
2017-07-29T12:26:56.559Z,48.84
2017-07-29T12:29:23.951Z,50.60
2017-07-29T12:31:51.381Z,51.47
2017-07-29T12:34:18.780Z,54.78
2017-07-29T12:36:46.174Z,51.06
2017-07-29T12:39:13.620Z,52.16
2017-07-29T12:41:41.019Z,52.93
2017-07-29T12:44:08.402Z,53.85
2017-07-29T12:46:36.045Z,52.80
2017-07-29T12:49:03.443Z,50.51
2017-07-29T12:51:30.834Z,52.91
2017-07-29T12:53:58.678Z,54.00
2017-07-29T12:56:26.066Z,55.02
2017-07-29T12:58:53.455Z,55.60
2017-07-29T13:01:21.002Z,56.92
2017-07-29T13:03:48.390Z,57.45
2017-07-29T13:06:15.786Z,58.18
2017-07-29T13:08:43.338Z,58.29
2017-07-29T13:11:10.730Z,58.79
2017-07-29T13:13:38.118Z,58.67
2017-07-29T13:16:05.942Z,59.58
2017-07-29T13:18:33.325Z,59.68
2017-07-29T13:21:00.715Z,59.97
2017-07-29T13:23:28.315Z,59.96
2017-07-29T13:25:55.710Z,59.73
2017-07-29T13:28:23.098Z,59.69
2017-07-29T13:30:50.518Z,58.65
2017-07-29T13:33:17.907Z,59.32
2017-07-29T13:35:45.301Z,57.39
2017-07-29T13:38:13.062Z,57.82
2017-07-29T13:40:40.450Z,57.88
2017-07-29T13:43:07.848Z,58.30
2017-07-29T13:45:35.635Z,56.69
2017-07-29T13:48:03.030Z,57.69
2017-07-29T13:50:31.455Z,58.54
2017-07-29T13:52:58.862Z,57.12
2017-07-29T13:55:26.243Z,55.24
2017-07-29T13:57:53.635Z,56.29
2017-07-29T14:00:21.203Z,58.01
2017-07-29T14:02:48.638Z,56.02
2017-07-29T14:05:16.046Z,54.77
2017-07-29T14:07:43.594Z,55.33
2017-07-29T14:10:10.978Z,55.93
2017-07-29T14:12:38.370Z,55.01
2017-07-29T14:15:05.788Z,58.39
2017-07-29T14:17:33.168Z,54.26
2017-07-29T14:20:00.572Z,54.61
2017-07-29T14:22:27.994Z,55.35
2017-07-29T14:24:57.011Z,55.79
2017-07-29T14:27:25.130Z,55.98
2017-07-29T14:29:52.687Z,59.44
2017-07-29T14:32:20.110Z,57.32
2017-07-29T14:34:47.498Z,57.31
2017-07-29T14:37:14.926Z,55.48
2017-07-29T14:39:42.322Z,56.36
2017-07-29T14:42:09.743Z,55.06
2017-07-29T14:44:37.481Z,55.96
2017-07-29T14:47:04.872Z,57.29
2017-07-29T14:49:32.255Z,58.00
2017-07-29T14:52:00.064Z,56.27
2017-07-29T14:54:27.458Z,57.49
2017-07-29T14:56:54.859Z,57.36
2017-07-29T14:59:22.278Z,56.38
2017-07-29T15:01:49.674Z,57.09
2017-07-29T15:04:17.070Z,56.26
2017-07-29T15:06:44.612Z,55.38
2017-07-29T15:09:11.998Z,55.91
2017-07-29T15:11:39.391Z,54.39
2017-07-29T15:14:06.808Z,56.22
2017-07-29T15:16:34.286Z,54.11
2017-07-29T15:19:01.677Z,55.59
2017-07-29T15:21:29.178Z,58.31
2017-07-29T15:23:56.582Z,54.40
2017-07-29T15:26:23.982Z,55.02
2017-07-29T15:28:51.527Z,55.70
2017-07-29T15:31:18.918Z,55.47
2017-07-29T15:33:47.314Z,54.14
2017-07-29T15:36:14.867Z,54.59
2017-07-29T15:38:42.250Z,53.58
2017-07-29T15:41:09.642Z,52.83
2017-07-29T15:43:37.045Z,53.86
2017-07-29T15:46:04.427Z,53.49
2017-07-29T15:48:31.817Z,55.33
2017-07-29T15:50:59.255Z,56.86
2017-07-29T15:53:26.651Z,57.75
2017-07-29T15:55:54.054Z,54.66
2017-07-29T15:58:21.827Z,55.24
2017-07-29T16:00:49.215Z,55.93
2017-07-29T16:03:16.608Z,56.76
2017-07-29T16:05:44.147Z,53.86
2017-07-29T16:08:11.546Z,55.30
2017-07-29T16:10:38.935Z,55.50
2017-07-29T16:13:06.439Z,56.60
2017-07-29T16:15:33.826Z,56.39
2017-07-29T16:18:01.223Z,57.05
2017-07-29T16:20:28.934Z,58.47
2017-07-29T16:22:56.318Z,59.50
2017-07-29T16:25:24.165Z,59.29
2017-07-29T16:27:51.682Z,60.01
2017-07-29T16:30:19.067Z,56.90
2017-07-29T16:32:46.928Z,58.01
2017-07-29T16:35:14.335Z,59.10
2017-07-29T16:37:42.187Z,58.91
2017-07-29T16:40:10.310Z,57.69
2017-07-29T16:42:37.713Z,58.86
2017-07-29T16:45:05.100Z,59.13
2017-07-29T16:47:32.494Z,58.46
2017-07-29T16:50:06.214Z,58.39
2017-07-29T16:52:34.554Z,58.17
2017-07-29T16:55:01.963Z,60.65
2017-07-29T16:57:37.475Z,59.40
2017-07-29T17:00:04.951Z,59.72
2017-07-29T17:02:34.931Z,59.96
2017-07-29T17:05:02.631Z,60.01
2017-07-29T17:07:30.030Z,60.06
2017-07-29T17:09:58.115Z,59.59
2017-07-29T17:12:25.631Z,59.58
2017-07-29T17:14:53.023Z,61.01
2017-07-29T17:17:20.411Z,60.63
2017-07-29T17:19:48.207Z,60.52
2017-07-29T17:22:18.795Z,60.73
2017-07-29T17:24:46.193Z,60.81
2017-07-29T17:27:13.623Z,61.41
2017-07-29T17:29:41.003Z,61.98
2017-07-29T17:32:08.395Z,62.67
2017-07-29T17:34:37.069Z,62.04
2017-07-29T17:37:04.443Z,62.08
2017-07-29T17:39:31.834Z,62.30
2017-07-29T17:41:59.338Z,62.14
2017-07-29T17:44:26.731Z,62.32
2017-07-29T17:46:54.124Z,63.11
2017-07-29T17:49:21.638Z,63.77
2017-07-29T17:51:49.065Z,63.61
2017-07-29T17:54:19.825Z,64.36
2017-07-29T17:56:47.230Z,64.71
2017-07-29T17:59:14.615Z,65.94
2017-07-29T18:01:42.011Z,67.01
2017-07-29T18:04:09.427Z,66.65
2017-07-29T18:06:36.826Z,66.73
2017-07-29T18:09:04.210Z,67.08
2017-07-29T18:11:31.758Z,67.14
2017-07-29T18:13:59.157Z,67.70
2017-07-29T18:16:26.550Z,67.84
2017-07-29T18:18:53.962Z,67.71
2017-07-29T18:21:21.355Z,67.91
2017-07-29T18:23:48.748Z,68.09
2017-07-29T18:26:16.405Z,68.12
2017-07-29T18:28:43.798Z,67.72
2017-07-29T18:31:13.227Z,67.87
2017-07-29T18:33:40.733Z,66.81
2017-07-29T18:36:08.143Z,66.77
2017-07-29T18:38:35.535Z,66.56
2017-07-29T18:41:03.082Z,66.42
2017-07-29T18:43:30.470Z,67.01
2017-07-29T18:45:57.872Z,66.83
2017-07-29T18:48:25.416Z,66.72
2017-07-29T18:50:52.814Z,66.68
2017-07-29T18:53:20.211Z,66.75
2017-07-29T18:55:47.754Z,66.74
2017-07-29T18:58:15.146Z,67.47
2017-07-29T19:00:42.538Z,67.11
2017-07-29T19:03:10.107Z,66.41
2017-07-29T19:05:37.510Z,67.08
2017-07-29T19:08:04.900Z,66.62
2017-07-29T19:10:32.658Z,66.84
2017-07-29T19:13:00.053Z,64.20
2017-07-29T19:15:27.444Z,65.30
2017-07-29T19:17:54.945Z,64.84
2017-07-29T19:20:22.327Z,65.07
2017-07-29T19:22:49.722Z,64.42
2017-07-29T19:25:17.213Z,63.82
2017-07-29T19:27:44.602Z,63.83
2017-07-29T19:30:11.994Z,64.34
2017-07-29T19:32:39.599Z,62.67
2017-07-29T19:35:06.996Z,63.47
2017-07-29T19:37:34.381Z,62.66
2017-07-29T19:40:01.930Z,62.78
2017-07-29T19:42:29.325Z,62.71
2017-07-29T19:44:56.715Z,61.89
2017-07-29T19:47:24.146Z,61.64
2017-07-29T19:49:51.546Z,61.83
2017-07-29T19:52:18.963Z,61.32
2017-07-29T19:54:46.458Z,62.10
2017-07-29T19:57:13.857Z,61.81
2017-07-29T19:59:41.254Z,62.40
2017-07-29T20:02:08.887Z,62.41
2017-07-29T20:04:36.278Z,62.78
2017-07-29T20:07:03.666Z,61.81
2017-07-29T20:09:31.076Z,62.13
2017-07-29T20:11:58.474Z,62.27
2017-07-29T20:14:25.862Z,62.58
2017-07-29T20:16:53.408Z,61.54
2017-07-29T20:19:20.807Z,61.67
2017-07-29T20:21:48.194Z,62.10
2017-07-29T20:24:16.011Z,61.68
2017-07-29T20:26:43.398Z,61.49
2017-07-29T20:29:10.790Z,61.40
2017-07-29T20:31:38.358Z,61.64
2017-07-29T20:34:05.770Z,62.35
2017-07-29T20:36:33.163Z,62.77
2017-07-29T20:39:00.566Z,62.59
2017-07-29T20:41:27.975Z,61.56
2017-07-29T20:43:55.378Z,62.25
2017-07-29T20:46:22.886Z,62.36
2017-07-29T20:48:50.278Z,61.97
2017-07-29T20:51:17.670Z,61.58
2017-07-29T20:53:45.075Z,62.54
2017-07-29T20:56:12.479Z,61.82
2017-07-29T20:58:39.871Z,61.91
2017-07-29T21:01:07.385Z,62.86
2017-07-29T21:03:34.786Z,62.40
2017-07-29T21:06:02.177Z,62.90
2017-07-29T21:08:29.580Z,62.58
2017-07-29T21:10:56.966Z,62.45
2017-07-29T21:13:24.358Z,62.92
2017-07-29T21:15:52.092Z,63.05
2017-07-29T21:18:19.478Z,61.23
2017-07-29T21:20:46.874Z,61.95
2017-07-29T21:23:14.286Z,61.58
2017-07-29T21:25:41.683Z,61.82
2017-07-29T21:28:09.095Z,61.80
2017-07-29T21:30:36.499Z,62.52
2017-07-29T21:33:03.895Z,62.09
2017-07-29T21:35:31.287Z,61.73
2017-07-29T21:37:59.115Z,61.92
2017-07-29T21:40:26.506Z,62.33
2017-07-29T21:42:53.898Z,60.89
2017-07-29T21:45:21.303Z,62.34
2017-07-29T21:47:48.712Z,61.82
2017-07-29T21:50:16.106Z,61.55
2017-07-29T21:52:43.564Z,62.45
2017-07-29T21:55:10.950Z,61.64
2017-07-29T21:57:38.342Z,62.22
2017-07-29T22:00:05.891Z,63.00
2017-07-29T22:02:33.283Z,62.21
2017-07-29T22:05:00.670Z,62.68
2017-07-29T22:07:28.071Z,62.32
2017-07-29T22:09:55.472Z,62.89
2017-07-29T22:12:22.862Z,62.94
2017-07-29T22:14:50.270Z,62.36
2017-07-29T22:17:17.663Z,62.48
2017-07-29T22:19:45.064Z,62.92
2017-07-29T22:22:12.929Z,62.02
2017-07-29T22:24:40.327Z,62.78
2017-07-29T22:27:07.715Z,62.42
2017-07-29T22:29:35.258Z,62.69
2017-07-29T22:32:02.662Z,63.19
2017-07-29T22:34:30.054Z,62.87
2017-07-29T22:36:57.482Z,62.58
2017-07-29T22:39:24.867Z,62.48
2017-07-29T22:41:52.262Z,63.29
2017-07-29T22:44:19.809Z,63.56
2017-07-29T22:46:47.227Z,63.91
2017-07-29T22:49:14.598Z,63.73
2017-07-29T22:51:42.147Z,63.92
2017-07-29T22:54:09.540Z,63.51
2017-07-29T22:56:36.926Z,63.15
2017-07-29T22:59:04.590Z,63.79
2017-07-29T23:01:31.986Z,63.42
2017-07-29T23:03:59.376Z,63.53
2017-07-29T23:06:26.922Z,64.32
2017-07-29T23:08:54.324Z,63.15
2017-07-29T23:11:21.722Z,63.98
2017-07-29T23:13:49.268Z,63.31
2017-07-29T23:16:16.662Z,64.05
2017-07-29T23:18:44.055Z,64.23
2017-07-29T23:21:11.706Z,64.25
2017-07-29T23:23:39.097Z,63.94
2017-07-29T23:26:06.490Z,64.54
2017-07-29T23:28:34.084Z,64.04
2017-07-29T23:31:01.473Z,64.75
2017-07-29T23:33:28.867Z,65.13
2017-07-29T23:35:56.281Z,64.88
2017-07-29T23:38:23.680Z,65.63
2017-07-29T23:40:51.074Z,65.94
2017-07-29T23:43:18.643Z,66.07
2017-07-29T23:45:46.038Z,65.53
2017-07-29T23:48:13.431Z,65.20
2017-07-29T23:50:40.846Z,65.37
2017-07-29T23:53:08.234Z,65.52
2017-07-29T23:55:35.630Z,65.85
2017-07-29T23:58:03.170Z,64.91
